sensor_id;sensor_type;location;lat;lon;timestamp;P1;durP1;ratioP1;P2;durP2;ratioP2
32297;SDS011;18782;48.984;8.548;2023-10-19T00:00:32;14.30;;;10.63;;
32297;SDS011;18782;48.984;8.548;2023-10-19T00:03:02;14.05;;;10.82;;
32297;SDS011;18782;48.984;8.548;2023-10-19T00:05:31;13.77;;;11.25;;
32297;SDS011;18782;48.984;8.548;2023-10-19T00:07:59;13.18;;;11.07;;
32297;SDS011;18782;48.984;8.548;2023-10-19T00:10:27;14.02;;;11.18;;
32297;SDS011;18782;48.984;8.548;2023-10-19T00:13:01;13.20;;;10.70;;
32297;SDS011;18782;48.984;8.548;2023-10-19T00:15:31;13.48;;;10.38;;
32297;SDS011;18782;48.984;8.548;2023-10-19T00:18:01;13.80;;;10.07;;
32297;SDS011;18782;48.984;8.548;2023-10-19T00:20:36;12.77;;;10.55;;
32297;SDS011;18782;48.984;8.548;2023-10-19T00:23:17;14.80;;;11.05;;
32297;SDS011;18782;48.984;8.548;2023-10-19T00:25:45;11.95;;;10.15;;
32297;SDS011;18782;48.984;8.548;2023-10-19T00:28:17;14.95;;;11.80;;
32297;SDS011;18782;48.984;8.548;2023-10-19T00:30:44;17.67;;;12.85;;
32297;SDS011;18782;48.984;8.548;2023-10-19T00:33:14;17.35;;;12.07;;
32297;SDS011;18782;48.984;8.548;2023-10-19T00:35:48;13.10;;;10.77;;
32297;SDS011;18782;48.984;8.548;2023-10-19T00:38:23;14.63;;;11.82;;
32297;SDS011;18782;48.984;8.548;2023-10-19T00:41:05;16.02;;;10.93;;
32297;SDS011;18782;48.984;8.548;2023-10-19T00:46:10;13.75;;;10.50;;
32297;SDS011;18782;48.984;8.548;2023-10-19T00:48:53;13.27;;;10.60;;
32297;SDS011;18782;48.984;8.548;2023-10-19T00:51:27;13.05;;;10.43;;
32297;SDS011;18782;48.984;8.548;2023-10-19T00:54:08;12.13;;;10.00;;
32297;SDS011;18782;48.984;8.548;2023-10-19T00:56:40;12.85;;;10.32;;
32297;SDS011;18782;48.984;8.548;2023-10-19T00:59:13;13.60;;;10.20;;
32297;SDS011;18782;48.984;8.548;2023-10-19T01:01:45;14.27;;;10.40;;
32297;SDS011;18782;48.984;8.548;2023-10-19T01:04:14;12.57;;;10.00;;
32297;SDS011;18782;48.984;8.548;2023-10-19T01:06:48;13.05;;;10.80;;
32297;SDS011;18782;48.984;8.548;2023-10-19T01:09:27;12.63;;;10.43;;
32297;SDS011;18782;48.984;8.548;2023-10-19T01:11:56;13.20;;;9.93;;
32297;SDS011;18782;48.984;8.548;2023-10-19T01:14:28;13.30;;;10.20;;
32297;SDS011;18782;48.984;8.548;2023-10-19T01:16:58;13.18;;;10.93;;
32297;SDS011;18782;48.984;8.548;2023-10-19T01:19:27;14.73;;;11.20;;
32297;SDS011;18782;48.984;8.548;2023-10-19T01:21:56;14.55;;;11.05;;
32297;SDS011;18782;48.984;8.548;2023-10-19T01:24:32;15.77;;;11.95;;
32297;SDS011;18782;48.984;8.548;2023-10-19T01:27:06;16.27;;;12.27;;
32297;SDS011;18782;48.984;8.548;2023-10-19T01:29:36;14.60;;;11.45;;
32297;SDS011;18782;48.984;8.548;2023-10-19T01:32:06;13.63;;;10.52;;
32297;SDS011;18782;48.984;8.548;2023-10-19T01:34:34;13.75;;;11.38;;
32297;SDS011;18782;48.984;8.548;2023-10-19T01:37:03;14.23;;;10.45;;
32297;SDS011;18782;48.984;8.548;2023-10-19T01:39:32;12.93;;;10.05;;
32297;SDS011;18782;48.984;8.548;2023-10-19T01:42:02;14.60;;;10.18;;
32297;SDS011;18782;48.984;8.548;2023-10-19T01:44:31;11.80;;;10.05;;
32297;SDS011;18782;48.984;8.548;2023-10-19T01:47:02;14.38;;;11.63;;
32297;SDS011;18782;48.984;8.548;2023-10-19T01:49:33;15.30;;;11.13;;
32297;SDS011;18782;48.984;8.548;2023-10-19T01:51:59;13.82;;;11.02;;
32297;SDS011;18782;48.984;8.548;2023-10-19T01:54:28;13.35;;;10.68;;
32297;SDS011;18782;48.984;8.548;2023-10-19T01:56:57;16.20;;;12.18;;
32297;SDS011;18782;48.984;8.548;2023-10-19T01:59:26;14.10;;;11.10;;
32297;SDS011;18782;48.984;8.548;2023-10-19T02:01:54;14.23;;;11.13;;
32297;SDS011;18782;48.984;8.548;2023-10-19T02:04:23;15.43;;;12.00;;
32297;SDS011;18782;48.984;8.548;2023-10-19T02:06:52;13.70;;;11.13;;
32297;SDS011;18782;48.984;8.548;2023-10-19T02:09:20;16.33;;;11.57;;
32297;SDS011;18782;48.984;8.548;2023-10-19T02:11:52;15.57;;;11.73;;
32297;SDS011;18782;48.984;8.548;2023-10-19T02:14:25;13.30;;;11.13;;
32297;SDS011;18782;48.984;8.548;2023-10-19T02:16:55;15.30;;;12.38;;
32297;SDS011;18782;48.984;8.548;2023-10-19T02:19:26;14.27;;;11.15;;
32297;SDS011;18782;48.984;8.548;2023-10-19T02:21:54;15.02;;;11.50;;
32297;SDS011;18782;48.984;8.548;2023-10-19T02:24:23;17.25;;;12.95;;
32297;SDS011;18782;48.984;8.548;2023-10-19T02:26:53;13.73;;;11.45;;
32297;SDS011;18782;48.984;8.548;2023-10-19T02:29:22;14.73;;;11.65;;
32297;SDS011;18782;48.984;8.548;2023-10-19T02:31:52;14.93;;;10.57;;
32297;SDS011;18782;48.984;8.548;2023-10-19T02:34:21;12.88;;;10.18;;
32297;SDS011;18782;48.984;8.548;2023-10-19T02:36:49;13.85;;;10.30;;
32297;SDS011;18782;48.984;8.548;2023-10-19T02:39:17;13.90;;;10.73;;
32297;SDS011;18782;48.984;8.548;2023-10-19T02:41:45;13.60;;;10.48;;
32297;SDS011;18782;48.984;8.548;2023-10-19T02:44:15;12.63;;;10.38;;
32297;SDS011;18782;48.984;8.548;2023-10-19T02:46:50;12.95;;;10.75;;
32297;SDS011;18782;48.984;8.548;2023-10-19T02:49:20;14.25;;;10.57;;
32297;SDS011;18782;48.984;8.548;2023-10-19T02:51:49;12.65;;;10.60;;
32297;SDS011;18782;48.984;8.548;2023-10-19T02:54:18;13.60;;;10.45;;
32297;SDS011;18782;48.984;8.548;2023-10-19T02:56:46;12.82;;;10.73;;
32297;SDS011;18782;48.984;8.548;2023-10-19T02:59:16;13.65;;;11.02;;
32297;SDS011;18782;48.984;8.548;2023-10-19T03:01:43;15.07;;;10.57;;
32297;SDS011;18782;48.984;8.548;2023-10-19T03:04:13;14.60;;;10.68;;
32297;SDS011;18782;48.984;8.548;2023-10-19T03:06:41;14.38;;;10.63;;
32297;SDS011;18782;48.984;8.548;2023-10-19T03:09:10;14.10;;;10.52;;
32297;SDS011;18782;48.984;8.548;2023-10-19T03:11:40;12.02;;;10.02;;
32297;SDS011;18782;48.984;8.548;2023-10-19T03:14:08;13.35;;;10.40;;
32297;SDS011;18782;48.984;8.548;2023-10-19T03:16:36;12.88;;;9.80;;
32297;SDS011;18782;48.984;8.548;2023-10-19T03:19:03;13.02;;;10.38;;
32297;SDS011;18782;48.984;8.548;2023-10-19T03:21:32;13.20;;;9.68;;
32297;SDS011;18782;48.984;8.548;2023-10-19T03:24:00;16.48;;;12.80;;
32297;SDS011;18782;48.984;8.548;2023-10-19T03:26:31;14.32;;;10.48;;
32297;SDS011;18782;48.984;8.548;2023-10-19T03:29:03;13.27;;;11.23;;
32297;SDS011;18782;48.984;8.548;2023-10-19T03:31:34;13.48;;;11.20;;
32297;SDS011;18782;48.984;8.548;2023-10-19T03:34:09;12.77;;;10.90;;
32297;SDS011;18782;48.984;8.548;2023-10-19T03:36:40;13.57;;;10.05;;
32297;SDS011;18782;48.984;8.548;2023-10-19T03:39:08;11.98;;;10.40;;
32297;SDS011;18782;48.984;8.548;2023-10-19T03:41:41;14.55;;;10.43;;
32297;SDS011;18782;48.984;8.548;2023-10-19T03:44:10;12.25;;;10.20;;
32297;SDS011;18782;48.984;8.548;2023-10-19T03:46:45;13.90;;;9.65;;
32297;SDS011;18782;48.984;8.548;2023-10-19T03:49:22;13.90;;;10.27;;
32297;SDS011;18782;48.984;8.548;2023-10-19T03:51:54;11.35;;;9.60;;
32297;SDS011;18782;48.984;8.548;2023-10-19T03:54:47;12.88;;;10.02;;
32297;SDS011;18782;48.984;8.548;2023-10-19T03:57:15;12.90;;;10.27;;
32297;SDS011;18782;48.984;8.548;2023-10-19T03:59:48;12.02;;;10.10;;
32297;SDS011;18782;48.984;8.548;2023-10-19T04:02:19;12.85;;;10.90;;
32297;SDS011;18782;48.984;8.548;2023-10-19T04:04:48;12.00;;;9.98;;
32297;SDS011;18782;48.984;8.548;2023-10-19T04:07:20;12.00;;;9.77;;
32297;SDS011;18782;48.984;8.548;2023-10-19T04:09:48;15.02;;;11.65;;
32297;SDS011;18782;48.984;8.548;2023-10-19T04:12:26;19.98;;;13.30;;
32297;SDS011;18782;48.984;8.548;2023-10-19T04:14:57;13.88;;;11.43;;
32297;SDS011;18782;48.984;8.548;2023-10-19T04:17:32;13.85;;;10.23;;
32297;SDS011;18782;48.984;8.548;2023-10-19T04:20:02;12.90;;;9.45;;
32297;SDS011;18782;48.984;8.548;2023-10-19T04:22:52;12.23;;;10.05;;
32297;SDS011;18782;48.984;8.548;2023-10-19T04:25:21;12.88;;;10.65;;
32297;SDS011;18782;48.984;8.548;2023-10-19T04:27:52;12.57;;;10.18;;
32297;SDS011;18782;48.984;8.548;2023-10-19T04:30:20;13.75;;;10.70;;
32297;SDS011;18782;48.984;8.548;2023-10-19T04:32:50;13.50;;;10.52;;
32297;SDS011;18782;48.984;8.548;2023-10-19T04:35:18;12.30;;;9.35;;
32297;SDS011;18782;48.984;8.548;2023-10-19T04:37:48;12.43;;;10.07;;
32297;SDS011;18782;48.984;8.548;2023-10-19T04:40:18;11.35;;;10.05;;
32297;SDS011;18782;48.984;8.548;2023-10-19T04:42:46;12.73;;;10.13;;
32297;SDS011;18782;48.984;8.548;2023-10-19T04:45:15;12.25;;;9.40;;
32297;SDS011;18782;48.984;8.548;2023-10-19T04:47:43;13.80;;;11.55;;
32297;SDS011;18782;48.984;8.548;2023-10-19T04:50:10;14.80;;;11.63;;
32297;SDS011;18782;48.984;8.548;2023-10-19T04:52:38;14.75;;;11.13;;
32297;SDS011;18782;48.984;8.548;2023-10-19T04:55:07;13.25;;;10.55;;
32297;SDS011;18782;48.984;8.548;2023-10-19T04:57:36;16.73;;;11.38;;
32297;SDS011;18782;48.984;8.548;2023-10-19T05:00:04;13.45;;;10.98;;
32297;SDS011;18782;48.984;8.548;2023-10-19T05:02:34;11.57;;;10.02;;
32297;SDS011;18782;48.984;8.548;2023-10-19T05:05:02;14.38;;;10.65;;
32297;SDS011;18782;48.984;8.548;2023-10-19T05:07:29;13.13;;;10.88;;
32297;SDS011;18782;48.984;8.548;2023-10-19T05:09:57;13.45;;;10.80;;
32297;SDS011;18782;48.984;8.548;2023-10-19T05:12:25;11.32;;;9.50;;
32297;SDS011;18782;48.984;8.548;2023-10-19T05:14:54;15.95;;;12.07;;
32297;SDS011;18782;48.984;8.548;2023-10-19T05:17:22;13.20;;;10.30;;
32297;SDS011;18782;48.984;8.548;2023-10-19T05:19:50;11.82;;;9.98;;
32297;SDS011;18782;48.984;8.548;2023-10-19T05:22:18;12.07;;;10.23;;
32297;SDS011;18782;48.984;8.548;2023-10-19T05:24:47;13.25;;;10.77;;
32297;SDS011;18782;48.984;8.548;2023-10-19T05:27:15;13.77;;;10.23;;
32297;SDS011;18782;48.984;8.548;2023-10-19T05:29:43;21.27;;;11.55;;
32297;SDS011;18782;48.984;8.548;2023-10-19T05:32:13;18.27;;;13.18;;
32297;SDS011;18782;48.984;8.548;2023-10-19T05:34:41;15.75;;;12.23;;
32297;SDS011;18782;48.984;8.548;2023-10-19T05:37:09;18.67;;;14.05;;
32297;SDS011;18782;48.984;8.548;2023-10-19T05:39:36;18.02;;;13.40;;
32297;SDS011;18782;48.984;8.548;2023-10-19T05:42:04;20.08;;;13.82;;
32297;SDS011;18782;48.984;8.548;2023-10-19T05:44:32;17.92;;;13.00;;
32297;SDS011;18782;48.984;8.548;2023-10-19T05:47:01;20.60;;;12.00;;
32297;SDS011;18782;48.984;8.548;2023-10-19T05:49:30;13.57;;;11.40;;
32297;SDS011;18782;48.984;8.548;2023-10-19T05:52:00;14.80;;;11.40;;
32297;SDS011;18782;48.984;8.548;2023-10-19T05:54:29;15.32;;;12.30;;
32297;SDS011;18782;48.984;8.548;2023-10-19T05:56:57;12.68;;;11.05;;
32297;SDS011;18782;48.984;8.548;2023-10-19T05:59:25;14.70;;;10.98;;
32297;SDS011;18782;48.984;8.548;2023-10-19T06:01:55;14.77;;;11.27;;
32297;SDS011;18782;48.984;8.548;2023-10-19T06:04:23;15.00;;;11.23;;
32297;SDS011;18782;48.984;8.548;2023-10-19T06:06:52;13.40;;;10.30;;
32297;SDS011;18782;48.984;8.548;2023-10-19T06:09:20;14.50;;;11.02;;
32297;SDS011;18782;48.984;8.548;2023-10-19T06:11:55;15.63;;;11.20;;
32297;SDS011;18782;48.984;8.548;2023-10-19T06:14:23;17.10;;;11.45;;
32297;SDS011;18782;48.984;8.548;2023-10-19T06:16:51;14.00;;;11.30;;
32297;SDS011;18782;48.984;8.548;2023-10-19T06:19:19;15.77;;;11.57;;
32297;SDS011;18782;48.984;8.548;2023-10-19T06:21:47;15.05;;;11.13;;
32297;SDS011;18782;48.984;8.548;2023-10-19T06:24:16;13.68;;;10.27;;
32297;SDS011;18782;48.984;8.548;2023-10-19T06:26:44;13.55;;;11.52;;
32297;SDS011;18782;48.984;8.548;2023-10-19T06:29:11;14.38;;;11.88;;
32297;SDS011;18782;48.984;8.548;2023-10-19T06:31:39;15.43;;;11.23;;
32297;SDS011;18782;48.984;8.548;2023-10-19T06:34:07;13.77;;;10.85;;
32297;SDS011;18782;48.984;8.548;2023-10-19T06:36:37;13.95;;;10.82;;
32297;SDS011;18782;48.984;8.548;2023-10-19T06:39:05;16.23;;;11.40;;
32297;SDS011;18782;48.984;8.548;2023-10-19T06:41:35;14.77;;;9.98;;
32297;SDS011;18782;48.984;8.548;2023-10-19T06:44:03;16.00;;;11.25;;
32297;SDS011;18782;48.984;8.548;2023-10-19T06:46:32;17.52;;;9.68;;
32297;SDS011;18782;48.984;8.548;2023-10-19T06:48:59;13.18;;;10.60;;
32297;SDS011;18782;48.984;8.548;2023-10-19T06:51:27;12.68;;;10.65;;
32297;SDS011;18782;48.984;8.548;2023-10-19T06:53:55;18.17;;;13.48;;
32297;SDS011;18782;48.984;8.548;2023-10-19T06:56:24;11.95;;;10.02;;
32297;SDS011;18782;48.984;8.548;2023-10-19T06:58:53;13.75;;;10.95;;
32297;SDS011;18782;48.984;8.548;2023-10-19T07:01:21;13.25;;;10.85;;
32297;SDS011;18782;48.984;8.548;2023-10-19T07:03:52;11.25;;;9.52;;
32297;SDS011;18782;48.984;8.548;2023-10-19T07:06:20;19.80;;;15.13;;
32297;SDS011;18782;48.984;8.548;2023-10-19T07:08:48;19.95;;;15.63;;
32297;SDS011;18782;48.984;8.548;2023-10-19T07:11:15;18.50;;;14.70;;
32297;SDS011;18782;48.984;8.548;2023-10-19T07:13:44;21.20;;;16.00;;
32297;SDS011;18782;48.984;8.548;2023-10-19T07:16:13;13.02;;;10.43;;
32297;SDS011;18782;48.984;8.548;2023-10-19T07:18:41;12.55;;;10.50;;
32297;SDS011;18782;48.984;8.548;2023-10-19T07:21:08;12.10;;;9.05;;
32297;SDS011;18782;48.984;8.548;2023-10-19T07:23:38;12.25;;;10.02;;
32297;SDS011;18782;48.984;8.548;2023-10-19T07:26:06;11.15;;;9.45;;
32297;SDS011;18782;48.984;8.548;2023-10-19T07:28:34;21.30;;;15.68;;
32297;SDS011;18782;48.984;8.548;2023-10-19T07:31:04;18.17;;;13.73;;
32297;SDS011;18782;48.984;8.548;2023-10-19T07:33:38;13.43;;;10.82;;
32297;SDS011;18782;48.984;8.548;2023-10-19T07:36:12;18.02;;;13.65;;
32297;SDS011;18782;48.984;8.548;2023-10-19T07:38:41;17.95;;;12.00;;
32297;SDS011;18782;48.984;8.548;2023-10-19T07:41:08;14.95;;;11.25;;
32297;SDS011;18782;48.984;8.548;2023-10-19T07:43:36;16.48;;;11.70;;
32297;SDS011;18782;48.984;8.548;2023-10-19T07:46:04;12.27;;;10.43;;
32297;SDS011;18782;48.984;8.548;2023-10-19T07:48:34;10.77;;;9.10;;
32297;SDS011;18782;48.984;8.548;2023-10-19T07:51:04;12.15;;;10.30;;
32297;SDS011;18782;48.984;8.548;2023-10-19T07:53:31;11.07;;;9.23;;
32297;SDS011;18782;48.984;8.548;2023-10-19T07:55:59;10.88;;;8.07;;
32297;SDS011;18782;48.984;8.548;2023-10-19T07:58:27;11.98;;;9.48;;
32297;SDS011;18782;48.984;8.548;2023-10-19T08:00:55;8.88;;;7.97;;
32297;SDS011;18782;48.984;8.548;2023-10-19T08:03:23;8.90;;;7.80;;
32297;SDS011;18782;48.984;8.548;2023-10-19T08:05:51;9.35;;;8.15;;
32297;SDS011;18782;48.984;8.548;2023-10-19T08:08:20;8.68;;;7.45;;
32297;SDS011;18782;48.984;8.548;2023-10-19T08:10:50;9.63;;;8.57;;
32297;SDS011;18782;48.984;8.548;2023-10-19T08:13:18;12.25;;;10.05;;
32297;SDS011;18782;48.984;8.548;2023-10-19T08:15:46;11.18;;;9.93;;
32297;SDS011;18782;48.984;8.548;2023-10-19T08:18:13;11.50;;;9.43;;
32297;SDS011;18782;48.984;8.548;2023-10-19T08:20:41;10.23;;;8.18;;
32297;SDS011;18782;48.984;8.548;2023-10-19T08:23:11;8.13;;;7.32;;
32297;SDS011;18782;48.984;8.548;2023-10-19T08:25:44;8.63;;;7.18;;
32297;SDS011;18782;48.984;8.548;2023-10-19T08:28:22;7.63;;;6.65;;
32297;SDS011;18782;48.984;8.548;2023-10-19T08:30:50;8.07;;;7.10;;
32297;SDS011;18782;48.984;8.548;2023-10-19T08:33:24;12.18;;;9.15;;
32297;SDS011;18782;48.984;8.548;2023-10-19T08:35:53;9.02;;;8.00;;
32297;SDS011;18782;48.984;8.548;2023-10-19T08:38:21;7.80;;;7.00;;
32297;SDS011;18782;48.984;8.548;2023-10-19T08:40:50;6.85;;;6.15;;
32297;SDS011;18782;48.984;8.548;2023-10-19T08:43:19;7.38;;;6.68;;
32297;SDS011;18782;48.984;8.548;2023-10-19T08:45:47;7.57;;;6.30;;
32297;SDS011;18782;48.984;8.548;2023-10-19T08:48:15;6.03;;;5.28;;
32297;SDS011;18782;48.984;8.548;2023-10-19T08:50:43;7.40;;;6.65;;
32297;SDS011;18782;48.984;8.548;2023-10-19T08:53:12;6.28;;;5.40;;
32297;SDS011;18782;48.984;8.548;2023-10-19T08:55:41;6.78;;;6.07;;
32297;SDS011;18782;48.984;8.548;2023-10-19T08:58:16;6.25;;;5.63;;
32297;SDS011;18782;48.984;8.548;2023-10-19T09:00:46;5.75;;;5.00;;
32297;SDS011;18782;48.984;8.548;2023-10-19T09:03:17;6.95;;;5.20;;
32297;SDS011;18782;48.984;8.548;2023-10-19T09:05:45;7.47;;;6.10;;
32297;SDS011;18782;48.984;8.548;2023-10-19T09:08:14;5.90;;;5.40;;
32297;SDS011;18782;48.984;8.548;2023-10-19T09:10:44;8.35;;;5.75;;
32297;SDS011;18782;48.984;8.548;2023-10-19T09:13:13;5.97;;;5.38;;
32297;SDS011;18782;48.984;8.548;2023-10-19T09:15:46;6.43;;;4.95;;
32297;SDS011;18782;48.984;8.548;2023-10-19T09:18:16;6.80;;;5.53;;
32297;SDS011;18782;48.984;8.548;2023-10-19T09:20:45;6.07;;;5.13;;
32297;SDS011;18782;48.984;8.548;2023-10-19T09:23:20;6.32;;;5.60;;
32297;SDS011;18782;48.984;8.548;2023-10-19T09:25:49;9.10;;;5.47;;
32297;SDS011;18782;48.984;8.548;2023-10-19T09:28:19;6.30;;;5.25;;
32297;SDS011;18782;48.984;8.548;2023-10-19T09:30:49;6.63;;;5.60;;
32297;SDS011;18782;48.984;8.548;2023-10-19T09:33:18;6.05;;;5.03;;
32297;SDS011;18782;48.984;8.548;2023-10-19T09:35:48;6.40;;;5.15;;
32297;SDS011;18782;48.984;8.548;2023-10-19T09:38:19;5.20;;;4.70;;
32297;SDS011;18782;48.984;8.548;2023-10-19T09:40:48;7.20;;;5.32;;
32297;SDS011;18782;48.984;8.548;2023-10-19T09:43:19;7.65;;;5.22;;
32297;SDS011;18782;48.984;8.548;2023-10-19T09:45:55;8.88;;;5.28;;
32297;SDS011;18782;48.984;8.548;2023-10-19T09:50:55;6.35;;;4.97;;
32297;SDS011;18782;48.984;8.548;2023-10-19T09:53:25;5.45;;;4.78;;
32297;SDS011;18782;48.984;8.548;2023-10-19T09:55:54;5.45;;;4.60;;
32297;SDS011;18782;48.984;8.548;2023-10-19T09:58:25;5.97;;;4.30;;
32297;SDS011;18782;48.984;8.548;2023-10-19T10:00:57;5.20;;;4.45;;
32297;SDS011;18782;48.984;8.548;2023-10-19T10:03:44;4.68;;;4.15;;
32297;SDS011;18782;48.984;8.548;2023-10-19T10:06:13;4.68;;;4.18;;
32297;SDS011;18782;48.984;8.548;2023-10-19T10:08:42;4.90;;;4.13;;
32297;SDS011;18782;48.984;8.548;2023-10-19T10:11:18;5.22;;;3.88;;
32297;SDS011;18782;48.984;8.548;2023-10-19T10:13:47;5.43;;;3.75;;
32297;SDS011;18782;48.984;8.548;2023-10-19T10:16:21;5.40;;;4.03;;
32297;SDS011;18782;48.984;8.548;2023-10-19T10:18:50;6.32;;;4.05;;
32297;SDS011;18782;48.984;8.548;2023-10-19T10:21:22;4.55;;;3.83;;
32297;SDS011;18782;48.984;8.548;2023-10-19T10:23:51;5.53;;;3.35;;
32297;SDS011;18782;48.984;8.548;2023-10-19T10:26:21;7.63;;;4.50;;
32297;SDS011;18782;48.984;8.548;2023-10-19T10:31:40;5.90;;;4.28;;
32297;SDS011;18782;48.984;8.548;2023-10-19T10:34:09;7.25;;;4.13;;
32297;SDS011;18782;48.984;8.548;2023-10-19T10:39:26;5.47;;;4.40;;
32297;SDS011;18782;48.984;8.548;2023-10-19T10:41:56;5.88;;;4.05;;
32297;SDS011;18782;48.984;8.548;2023-10-19T10:44:37;6.40;;;4.63;;
32297;SDS011;18782;48.984;8.548;2023-10-19T10:47:08;7.65;;;6.28;;
32297;SDS011;18782;48.984;8.548;2023-10-19T10:49:47;7.07;;;5.70;;
32297;SDS011;18782;48.984;8.548;2023-10-19T10:52:26;8.35;;;5.50;;
32297;SDS011;18782;48.984;8.548;2023-10-19T10:54:56;7.38;;;5.25;;
32297;SDS011;18782;48.984;8.548;2023-10-19T10:57:31;7.30;;;4.47;;
32297;SDS011;18782;48.984;8.548;2023-10-19T11:00:02;7.13;;;4.97;;
32297;SDS011;18782;48.984;8.548;2023-10-19T11:02:35;7.25;;;5.70;;
32297;SDS011;18782;48.984;8.548;2023-10-19T11:05:06;8.45;;;5.97;;
32297;SDS011;18782;48.984;8.548;2023-10-19T11:07:38;7.18;;;5.82;;
32297;SDS011;18782;48.984;8.548;2023-10-19T11:10:06;8.20;;;5.43;;
32297;SDS011;18782;48.984;8.548;2023-10-19T11:12:36;6.13;;;4.72;;
32297;SDS011;18782;48.984;8.548;2023-10-19T11:15:05;7.07;;;4.75;;
32297;SDS011;18782;48.984;8.548;2023-10-19T11:17:43;5.43;;;4.65;;
32297;SDS011;18782;48.984;8.548;2023-10-19T11:20:20;6.65;;;4.90;;
32297;SDS011;18782;48.984;8.548;2023-10-19T11:22:49;7.78;;;5.65;;
32297;SDS011;18782;48.984;8.548;2023-10-19T11:25:19;10.38;;;5.82;;
32297;SDS011;18782;48.984;8.548;2023-10-19T11:27:47;7.88;;;5.75;;
32297;SDS011;18782;48.984;8.548;2023-10-19T11:30:22;11.93;;;8.73;;
32297;SDS011;18782;48.984;8.548;2023-10-19T11:32:52;14.23;;;10.82;;
32297;SDS011;18782;48.984;8.548;2023-10-19T11:35:24;10.35;;;8.20;;
32297;SDS011;18782;48.984;8.548;2023-10-19T11:37:52;7.28;;;6.15;;
32297;SDS011;18782;48.984;8.548;2023-10-19T11:40:21;7.22;;;6.05;;
32297;SDS011;18782;48.984;8.548;2023-10-19T11:42:50;6.55;;;5.85;;
32297;SDS011;18782;48.984;8.548;2023-10-19T11:45:18;8.45;;;6.35;;
32297;SDS011;18782;48.984;8.548;2023-10-19T11:47:46;8.73;;;5.55;;
32297;SDS011;18782;48.984;8.548;2023-10-19T11:50:16;9.50;;;6.43;;
32297;SDS011;18782;48.984;8.548;2023-10-19T11:52:45;7.35;;;6.25;;
32297;SDS011;18782;48.984;8.548;2023-10-19T11:55:14;8.60;;;6.85;;
32297;SDS011;18782;48.984;8.548;2023-10-19T11:57:43;9.82;;;7.95;;
32297;SDS011;18782;48.984;8.548;2023-10-19T12:00:11;16.65;;;11.18;;
32297;SDS011;18782;48.984;8.548;2023-10-19T12:02:46;16.38;;;11.57;;
32297;SDS011;18782;48.984;8.548;2023-10-19T12:05:14;12.77;;;8.85;;
32297;SDS011;18782;48.984;8.548;2023-10-19T12:07:43;15.38;;;9.63;;
32297;SDS011;18782;48.984;8.548;2023-10-19T12:10:12;52.75;;;27.52;;
32297;SDS011;18782;48.984;8.548;2023-10-19T12:12:39;23.95;;;15.32;;
32297;SDS011;18782;48.984;8.548;2023-10-19T12:15:26;13.63;;;9.73;;
32297;SDS011;18782;48.984;8.548;2023-10-19T12:17:54;12.55;;;9.32;;
32297;SDS011;18782;48.984;8.548;2023-10-19T12:20:21;11.38;;;8.80;;
32297;SDS011;18782;48.984;8.548;2023-10-19T12:22:50;11.45;;;8.00;;
32297;SDS011;18782;48.984;8.548;2023-10-19T12:25:21;9.43;;;7.20;;
32297;SDS011;18782;48.984;8.548;2023-10-19T12:28:02;11.48;;;7.85;;
32297;SDS011;18782;48.984;8.548;2023-10-19T12:30:30;12.23;;;7.13;;
32297;SDS011;18782;48.984;8.548;2023-10-19T12:33:03;11.75;;;8.27;;
32297;SDS011;18782;48.984;8.548;2023-10-19T12:35:34;10.13;;;7.10;;
32297;SDS011;18782;48.984;8.548;2023-10-19T12:38:12;8.10;;;6.90;;
32297;SDS011;18782;48.984;8.548;2023-10-19T12:40:43;7.55;;;6.65;;
32297;SDS011;18782;48.984;8.548;2023-10-19T12:43:12;7.63;;;6.35;;
32297;SDS011;18782;48.984;8.548;2023-10-19T12:45:41;8.98;;;6.63;;
32297;SDS011;18782;48.984;8.548;2023-10-19T12:48:10;19.30;;;14.85;;
32297;SDS011;18782;48.984;8.548;2023-10-19T12:50:38;34.40;;;26.65;;
32297;SDS011;18782;48.984;8.548;2023-10-19T12:53:07;41.22;;;32.78;;
32297;SDS011;18782;48.984;8.548;2023-10-19T12:55:36;34.88;;;27.80;;
32297;SDS011;18782;48.984;8.548;2023-10-19T12:58:05;30.60;;;23.95;;
32297;SDS011;18782;48.984;8.548;2023-10-19T13:00:35;25.42;;;19.92;;
32297;SDS011;18782;48.984;8.548;2023-10-19T13:03:07;22.33;;;17.10;;
32297;SDS011;18782;48.984;8.548;2023-10-19T13:05:35;19.77;;;16.05;;
32297;SDS011;18782;48.984;8.548;2023-10-19T13:08:05;20.42;;;15.77;;
32297;SDS011;18782;48.984;8.548;2023-10-19T13:10:34;13.20;;;11.80;;
32297;SDS011;18782;48.984;8.548;2023-10-19T13:13:05;11.30;;;8.95;;
32297;SDS011;18782;48.984;8.548;2023-10-19T13:15:35;10.75;;;8.95;;
32297;SDS011;18782;48.984;8.548;2023-10-19T13:18:04;9.23;;;7.70;;
32297;SDS011;18782;48.984;8.548;2023-10-19T13:20:36;10.13;;;7.50;;
32297;SDS011;18782;48.984;8.548;2023-10-19T13:23:06;10.10;;;6.63;;
32297;SDS011;18782;48.984;8.548;2023-10-19T13:25:38;11.90;;;7.05;;
32297;SDS011;18782;48.984;8.548;2023-10-19T13:28:09;9.43;;;7.03;;
32297;SDS011;18782;48.984;8.548;2023-10-19T13:30:37;9.50;;;7.30;;
32297;SDS011;18782;48.984;8.548;2023-10-19T13:33:06;8.00;;;6.82;;
32297;SDS011;18782;48.984;8.548;2023-10-19T13:35:36;10.15;;;7.35;;
32297;SDS011;18782;48.984;8.548;2023-10-19T13:38:04;9.35;;;7.05;;
32297;SDS011;18782;48.984;8.548;2023-10-19T13:40:34;12.60;;;6.75;;
32297;SDS011;18782;48.984;8.548;2023-10-19T13:43:04;9.80;;;6.40;;
32297;SDS011;18782;48.984;8.548;2023-10-19T13:45:34;9.32;;;7.25;;
32297;SDS011;18782;48.984;8.548;2023-10-19T13:48:05;9.57;;;6.15;;
32297;SDS011;18782;48.984;8.548;2023-10-19T13:50:34;9.90;;;6.38;;
32297;SDS011;18782;48.984;8.548;2023-10-19T13:53:03;8.02;;;6.05;;
32297;SDS011;18782;48.984;8.548;2023-10-19T13:55:32;7.00;;;5.50;;
32297;SDS011;18782;48.984;8.548;2023-10-19T13:57:59;11.10;;;8.07;;
32297;SDS011;18782;48.984;8.548;2023-10-19T14:00:28;10.73;;;8.45;;
32297;SDS011;18782;48.984;8.548;2023-10-19T14:03:03;15.65;;;10.63;;
32297;SDS011;18782;48.984;8.548;2023-10-19T14:05:35;10.25;;;7.85;;
32297;SDS011;18782;48.984;8.548;2023-10-19T14:08:03;20.65;;;14.57;;
32297;SDS011;18782;48.984;8.548;2023-10-19T14:10:32;22.10;;;17.38;;
32297;SDS011;18782;48.984;8.548;2023-10-19T14:13:00;39.28;;;28.63;;
32297;SDS011;18782;48.984;8.548;2023-10-19T14:15:28;28.48;;;22.08;;
32297;SDS011;18782;48.984;8.548;2023-10-19T14:17:57;24.20;;;18.08;;
32297;SDS011;18782;48.984;8.548;2023-10-19T14:20:28;13.98;;;10.65;;
32297;SDS011;18782;48.984;8.548;2023-10-19T14:22:56;11.60;;;9.30;;
32297;SDS011;18782;48.984;8.548;2023-10-19T14:25:24;9.27;;;7.85;;
32297;SDS011;18782;48.984;8.548;2023-10-19T14:27:54;9.85;;;8.48;;
32297;SDS011;18782;48.984;8.548;2023-10-19T14:30:25;16.70;;;10.47;;
32297;SDS011;18782;48.984;8.548;2023-10-19T14:32:54;10.07;;;8.32;;
32297;SDS011;18782;48.984;8.548;2023-10-19T14:35:23;9.88;;;7.55;;
32297;SDS011;18782;48.984;8.548;2023-10-19T14:37:54;12.32;;;7.55;;
32297;SDS011;18782;48.984;8.548;2023-10-19T14:40:25;8.50;;;7.32;;
32297;SDS011;18782;48.984;8.548;2023-10-19T14:42:54;11.75;;;7.95;;
32297;SDS011;18782;48.984;8.548;2023-10-19T14:45:24;9.98;;;7.45;;
32297;SDS011;18782;48.984;8.548;2023-10-19T14:47:55;9.40;;;8.20;;
32297;SDS011;18782;48.984;8.548;2023-10-19T14:50:28;9.68;;;7.75;;
32297;SDS011;18782;48.984;8.548;2023-10-19T14:52:58;10.77;;;8.43;;
32297;SDS011;18782;48.984;8.548;2023-10-19T14:55:26;10.80;;;7.55;;
32297;SDS011;18782;48.984;8.548;2023-10-19T14:57:55;8.70;;;6.28;;